»·PEaware :: N143VT KFAT-KBUR

N143VT :: KFAT-KBUR

FLIGHT INFORMATION

Flight Status: Arrived
Operator: Privately registered:
United States
More flights under this callsign
Pilot: Anonymous 16492 (16492)
Aircraft: Unknown
(EPIC)
More flights by this aircraft type
Origin: KFAT Fresno Yosemite Intl
United States
Destination: KBUR Bob Hope-Burbank
United States
More flights between these airports :: More routes between these airports
Route: +BULL3 FRAME V23 GMN V299 FIM
File this flight plan on PilotEdge
Remarks:
Altitude:
(Current/Filed)
13,000ft
Speed:
(Current/Filed)
330kts
Departed: 04-Oct-18 05:52 PM
Arrived: 04-Oct-18 06:43 PM
Distance/Time
Traveled:
168nm/0:51
Distance/Time
To Go:
Arrived

Flight Plot

Page will automatically refresh every two minutes.

Flight plan parsing failed; only flown route is shown


Map Options




Map Legend


Flown Route
Filed Route
Departure Airport
Arrival Airport
Navaid (VOR, NDB)
Fix

Horizontal Profiles

Position Reports

Time Latitude Longitude Heading Altitude Ground
Speed
04-Oct-18 17:44 36.774970 -119.724081 126 338ft 0kts
04-Oct-18 17:45 36.774970 -119.724081 126 338ft 0kts
04-Oct-18 17:46 36.774970 -119.724081 126 338ft 0kts
04-Oct-18 17:47 36.774970 -119.724081 126 338ft 0kts
04-Oct-18 17:48 36.774970 -119.724081 126 338ft 0kts
04-Oct-18 17:49 36.774970 -119.724081 126 338ft 0kts
04-Oct-18 17:50 36.775003 -119.723950 40 338ft 0kts
04-Oct-18 17:51 36.776007 -119.722844 89 338ft 15kts
04-Oct-18 17:52 36.772169 -119.715826 126 338ft 30kts
04-Oct-18 17:53 36.769930 -119.711139 47 338ft 0kts
04-Oct-18 17:54 36.777175 -119.722424 302 483ft 143kts
04-Oct-18 17:55 36.802770 -119.768702 304 3573ft 176kts
04-Oct-18 17:56 36.830863 -119.818588 304 6811ft 183kts
04-Oct-18 17:57 36.858784 -119.875189 274 8647ft 232kts
04-Oct-18 17:58 36.813325 -119.893586 137 11364ft 203kts
04-Oct-18 17:59 36.769429 -119.844832 138 12924ft 243kts
04-Oct-18 18:00 36.723441 -119.794401 138 12930ft 294kts
04-Oct-18 18:01 36.649947 -119.714067 138 13010ft 320kts
04-Oct-18 18:02 36.577831 -119.656751 156 13859ft 303kts
04-Oct-18 18:03 36.503107 -119.616925 158 15002ft 297kts
04-Oct-18 18:04 36.424424 -119.576149 158 15011ft 320kts
04-Oct-18 18:05 36.341401 -119.533367 158 15010ft 329kts
04-Oct-18 18:06 36.258771 -119.490941 158 15010ft 319kts
04-Oct-18 18:07 36.191153 -119.456297 158 15010ft 315kts
04-Oct-18 18:08 36.097623 -119.408475 158 15008ft 313kts
04-Oct-18 18:09 36.031475 -119.374525 158 15021ft 312kts
04-Oct-18 18:10 35.952158 -119.333882 158 15013ft 317kts
04-Oct-18 18:11 35.871659 -119.292720 158 15008ft 322kts
04-Oct-18 18:12 35.789917 -119.251240 159 15008ft 324kts
04-Oct-18 18:13 35.718405 -119.215245 159 15008ft 325kts
04-Oct-18 18:14 35.635439 -119.173322 159 15008ft 325kts
04-Oct-18 18:15 35.557721 -119.134118 159 15008ft 325kts
04-Oct-18 18:16 35.475149 -119.094654 164 15009ft 325kts
04-Oct-18 18:17 35.389056 -119.063989 165 15000ft 325kts
04-Oct-18 18:18 35.302420 -119.033737 165 15000ft 325kts
04-Oct-18 18:19 35.215990 -119.003672 165 15000ft 325kts
04-Oct-18 18:20 35.130108 -118.973695 165 15010ft 324kts
04-Oct-18 18:21 35.046238 -118.944513 166 15034ft 324kts
04-Oct-18 18:22 34.960964 -118.915336 167 15051ft 324kts
04-Oct-18 18:23 34.877351 -118.886536 167 15063ft 321kts
04-Oct-18 18:24 34.808713 -118.864330 179 15065ft 314kts
04-Oct-18 18:25 34.723934 -118.865268 185 15085ft 310kts
04-Oct-18 18:26 34.640035 -118.868686 186 15067ft 285kts
04-Oct-18 18:27 34.570144 -118.871794 186 14268ft 244kts
04-Oct-18 18:28 34.503344 -118.874796 185 12743ft 240kts
04-Oct-18 18:29 34.438392 -118.877681 185 11089ft 221kts
04-Oct-18 18:30 34.387503 -118.879861 186 11040ft 159kts
04-Oct-18 18:31 34.354090 -118.862475 115 11188ft 145kts
04-Oct-18 18:32 34.334470 -118.803547 112 10412ft 236kts
04-Oct-18 18:33 34.310884 -118.726385 111 8429ft 237kts
04-Oct-18 18:34 34.306853 -118.652519 67 6436ft 225kts
04-Oct-18 18:35 34.318019 -118.579957 85 4468ft 215kts
04-Oct-18 18:36 34.322890 -118.512894 86 3149ft 190kts
04-Oct-18 18:37 34.308158 -118.457625 124 2547ft 186kts
04-Oct-18 18:38 34.277149 -118.416176 139 1882ft 144kts
04-Oct-18 18:39 34.249588 -118.387274 145 1468ft 145kts
04-Oct-18 18:40 34.214621 -118.384556 188 1339ft 107kts
04-Oct-18 18:41 34.193501 -118.356149 140 1303ft 188kts
04-Oct-18 18:42 34.172475 -118.365023 308 1625ft 134kts
04-Oct-18 18:43 34.208561 -118.372526 0 1370ft 148kts
04-Oct-18 18:44 34.212932 -118.360605 168 851ft 85kts
04-Oct-18 18:45 34.201721 -118.358669 167 780ft 17kts
04-Oct-18 18:46 34.200018 -118.359410 341 780ft 0kts

Navigation Log

Ident Type
Flight plan parsing failed, navigation log unavailable